KCPT

Cleburne Regional Airport

Cleburne, Texas, USA
METAR KCPT 181035Z AUTO 14009KT 10SM SCT014 BKN030 OVC045 25/23 A2998 RMK AO2
Observed Flight Rules
Jun-18 @ 10:35 UTC (24 minutes ago) Marginal Visual Flight Rules
Wind Visibility Clouds
140° at 9 knots 10 miles
  • Scattered at 1,400' AGL
  • Broken at 3,000' AGL
  • Overcast at 4,500' AGL
Temperatures Readings
Current 25°C / 77°F
Dewpoint 23°C / 73°F
Humidity 89%
Altimeter 29.98" Hg
Pressure 1015 hPa
Elevation 260
METAR KCPT 181035Z AUTO 14009KT 10SM SCT014 BKN030 OVC045 25/23 A2998 RMK AO2
Observed Flight Rules
Jun-18 @ 10:35 UTC
(24 minutes ago)
MVFR
Wind Visibility
140° at 9 knots 10 miles
Clouds
  • Scattered at 1,400' AGL
  • Broken at 3,000' AGL
  • Overcast at 4,500' AGL
Temperature Dewpoint
25°C / 77°F 23°C / 73°F
Humidity Altimeter Pressure
89% 29.98" Hg 1015 hPa